Terminal Aerodrome Forecast
Issued by NWS

Home | Current Version | Previous Version | Text Only | Print | Product List | Glossary On
Versions: 1 2 3 4 5 6 7 8 9 10 11 12 13
000
FTUS42 TJSJ 271130
TAFJBQ
TAF
TJBQ 271130Z 2712/2812 09008KT P6SM SKC
     FM271300 08012KT P6SM FEW060
     FM271630 08015KT P6SM VCTS SCT030CB SCT050
     FM272300 09008KT P6SM SCT025
      AMD NOT SKED 2802/2811=

USA.gov is the U.S. government's official web portal to all federal, state and local government web resources and services.